CheckWX is a tool to help pilots better visualize weather data.  It is not intended as a substitute for an official pre-flight weather briefing.

16:02:17 UTC

KMIB METAR
Minot AFB Airport
Minot, North Dakota, USA
Current

6 mins ago

KMIB 261556Z AUTO 07016KT 10SM OVC007 07/07 A3009 RMK AO2 SLP202 T00720071 $
Observed
May-26 @ 15:56 UTC
Wind
  • 070° at 16 KTS
Visibility
10 SM
Flight Rules
IFR
Cloud Levels
  • Overcast at 700' AGL
Temperature
C / 45°F
Dewpoint
C / 45°F
Humidity
100%
Altimeter
30.09" Hg
Pressure
1018.92 hPa
Previous

41 mins ago

KMIB 261521Z AUTO 08017KT 10SM OVC006 07/07 A3009 RMK AO2 CIG 005 RWY30 SLP202 $
Observed
May-26 @ 15:21 UTC
Wind
  • 080° at 17 KTS
Visibility
10 SM
Flight Rules
IFR
Cloud Levels
  • Overcast at 600' AGL
Temperature
C / 45°F
Dewpoint
C / 45°F
Humidity
100%
Altimeter
30.09" Hg
Pressure
1018.92 hPa
Previous

1 hour ago

KMIB 261456Z AUTO 08015KT 10SM OVC005 07/07 A3009 RMK AO2 SLP201 T00720072 52014 $
Observed
May-26 @ 14:56 UTC
Wind
  • 080° at 15 KTS
Visibility
10 SM
Flight Rules
IFR
Cloud Levels
  • Overcast at 500' AGL
Temperature
C / 45°F
Dewpoint
C / 45°F
Humidity
100%
Altimeter
30.09" Hg
Pressure
1018.92 hPa